Peotone Weather
Peotone-Weather Station Historical Data
 
Daily Summary for July 13, 2024 Units:  English    Metric   Both
Daily Weekly Monthly Yearly
  Current: High: Low: Average:
Temperature: 70.3 °F 70.3 °F 65 °F 66.4 °F
Dew Point: 68.9 °F 68.9 °F 63.5 °F 64.6 °F
Humidity: 95% 96% 90% 94%
Wind Speed: 2.4mph 3.7mph 0mph 1mph
Wind Gust: 6mph 6mph - -
WindESE - - East
Pressure: 30.17 in 30.17 in 30.12 in -
Precipitation: 0.00 in      
 
 
Tabular Data for July 13, 2024
Time Temperature Dew Point Pressure Wind Wind Speed Wind Gust Humidity Rainfall Rate (Hourly) solar
00:04 68 °F 65 °F 30.13 in ENE 2.3 mph 4.8 mph 90% 0.00 in 0 W/m2
00:09 67.9 °F 65 °F 30.13 in ENE 1.8 mph 4.8 mph 90.4% 0.00 in 0 W/m2
00:14 67.8 °F 65 °F 30.13 in ENE 1.7 mph 4.8 mph 91% 0.00 in 0 W/m2
00:19 67.7 °F 65 °F 30.13 in ENE 0.6 mph 4.8 mph 91% 0.00 in 0 W/m2
00:24 67.6 °F 64.9 °F 30.13 in ENE 0.7 mph 4.8 mph 91% 0.00 in 0 W/m2
00:29 67.4 °F 64.7 °F 30.13 in ENE 1.2 mph 3.6 mph 91% 0.00 in 0 W/m2
00:34 67.3 °F 64.6 °F 30.13 in ENE 1.8 mph 3.6 mph 91% 0.00 in 0 W/m2
00:39 67.3 °F 64.8 °F 30.13 in ENE 1.3 mph 3.6 mph 91.8% 0.00 in 0 W/m2
00:44 67.3 °F 64.9 °F 30.13 in ENE 0.4 mph 3.6 mph 92% 0.00 in 0 W/m2
00:49 67.3 °F 64.9 °F 30.13 in ENE 0.6 mph 3.6 mph 92% 0.00 in 0 W/m2
00:54 67.3 °F 64.9 °F 30.13 in ENE 0.7 mph 3.6 mph 92% 0.00 in 0 W/m2
00:59 67.3 °F 64.9 °F 30.13 in ENE 1 mph 2.4 mph 92% 0.00 in 0 W/m2
01:04 67.2 °F 64.8 °F 30.13 in ENE 0.7 mph 2.4 mph 92% 0.00 in 0 W/m2
01:09 67 °F 64.6 °F 30.13 in ENE 0.3 mph 2.4 mph 92% 0.00 in 0 W/m2
01:14 67 °F 64.6 °F 30.13 in ENE 0.6 mph 2.4 mph 92% 0.00 in 0 W/m2
01:19 67 °F 64.6 °F 30.13 in ENE 0.6 mph 2.4 mph 92% 0.00 in 0 W/m2
01:24 66.8 °F 64.4 °F 30.13 in ENE 0.8 mph 2.4 mph 92% 0.00 in 0 W/m2
01:29 66.7 °F 64.4 °F 30.13 in ENE 0.1 mph 2.4 mph 92.2% 0.00 in 0 W/m2
01:34 66.6 °F 64.5 °F 30.13 in ENE 0.9 mph 2.4 mph 92.8% 0.00 in 0 W/m2
01:39 66.6 °F 64.5 °F 30.13 in ENE 1.3 mph 2.4 mph 93% 0.00 in 0 W/m2
01:44 66.5 °F 64.4 °F 30.12 in ENE 1.2 mph 2.4 mph 93% 0.00 in 0 W/m2
01:49 66.5 °F 64.4 °F 30.13 in East 0.8 mph 2.4 mph 93% 0.00 in 0 W/m2
01:54 66.5 °F 64.4 °F 30.12 in East 0.8 mph 2.4 mph 93% 0.00 in 0 W/m2
01:59 66.5 °F 64.4 °F 30.13 in East 0.1 mph 2.4 mph 93% 0.00 in 0 W/m2
02:04 66.5 °F 64.4 °F 30.12 in East 0.6 mph 2.4 mph 93% 0.00 in 0 W/m2
02:09 66.4 °F 64.3 °F 30.13 in East 0.9 mph 2.4 mph 93% 0.00 in 0 W/m2
02:14 66.4 °F 64.3 °F 30.12 in East 0.9 mph 3.6 mph 93% 0.00 in 0 W/m2
02:19 66.3 °F 64.2 °F 30.12 in East 1 mph 3.6 mph 93% 0.00 in 0 W/m2
02:24 66.2 °F 64.1 °F 30.12 in East 0.7 mph 3.6 mph 93% 0.00 in 0 W/m2
02:29 66.1 °F 64.3 °F 30.12 in East 1 mph 3.6 mph 93.9% 0.00 in 0 W/m2
02:34 66.1 °F 64.4 °F 30.12 in East 1.3 mph 3.6 mph 94% 0.00 in 0 W/m2
02:39 66.1 °F 64.2 °F 30.12 in East 0.9 mph 3.6 mph 93.8% 0.00 in 0 W/m2
02:44 66 °F 64.3 °F 30.12 in East 1.5 mph 3.6 mph 94% 0.00 in 0 W/m2
02:49 65.9 °F 64.1 °F 30.12 in East 1.2 mph 3.6 mph 94% 0.00 in 0 W/m2
02:54 65.9 °F 64.1 °F 30.12 in East 0.7 mph 3.6 mph 94% 0.00 in 0 W/m2
02:59 65.8 °F 64 °F 30.12 in East 0.8 mph 3.6 mph 94% 0.00 in 0 W/m2
03:04 65.7 °F 64 °F 30.12 in East 0.1 mph 2.4 mph 94% 0.00 in 0 W/m2
03:09 65.7 °F 63.9 °F 30.12 in Calm   2.4 mph 94% 0.00 in 0 W/m2
03:14 65.8 °F 64 °F 30.13 in Calm   2.4 mph 94% 0.00 in 0 W/m2
03:19 65.7 °F 63.9 °F 30.13 in Calm     94% 0.00 in 0 W/m2
03:24 65.6 °F 63.8 °F 30.13 in Calm     94% 0.00 in 0 W/m2
03:29 65.7 °F 64.1 °F 30.13 in Calm     94.7% 0.00 in 0 W/m2
03:34 65.6 °F 63.9 °F 30.13 in Calm     94.1% 0.00 in 0 W/m2
03:39 65.6 °F 64 °F 30.13 in East 0.7 mph 2.4 mph 94.6% 0.00 in 0 W/m2
03:44 65.5 °F 63.9 °F 30.13 in East 1.3 mph 2.4 mph 94.5% 0.00 in 0 W/m2
03:49 65.6 °F 64.1 °F 30.13 in Calm   2.4 mph 95% 0.00 in 0 W/m2
03:54 65.5 °F 63.8 °F 30.13 in Calm   2.4 mph 94.4% 0.00 in 0 W/m2
03:59 65.4 °F 63.9 °F 30.13 in East 1.2 mph 2.4 mph 94.8% 0.00 in 0 W/m2
04:04 65.4 °F 64 °F 30.13 in East 1 mph 2.4 mph 95% 0.00 in 0 W/m2
04:09 65.2 °F 63.7 °F 30.13 in East 0.3 mph 2.4 mph 94.7% 0.00 in 0 W/m2
04:14 65.2 °F 63.8 °F 30.13 in East 1 mph 3.6 mph 95% 0.00 in 0 W/m2
04:19 65.2 °F 63.7 °F 30.13 in ESE 2.3 mph 3.6 mph 95% 0.00 in 0 W/m2
04:24 65.3 °F 63.8 °F 30.13 in ESE 2 mph 4.8 mph 95% 0.00 in 0 W/m2
04:29 65.3 °F 63.8 °F 30.13 in ESE 1.6 mph 4.8 mph 95% 0.00 in 0 W/m2
04:34 65.2 °F 63.8 °F 30.14 in Calm   4.8 mph 95% 0.00 in 0 W/m2
04:39 65.2 °F 63.8 °F 30.14 in ESE 0.4 mph 4.8 mph 95% 0.00 in 0 W/m2
04:44 65.2 °F 63.7 °F 30.14 in ESE 1 mph 2.4 mph 95% 0.00 in 0 W/m2
04:49 65.1 °F 63.7 °F 30.14 in ESE 0.5 mph 2.4 mph 95% 0.00 in 0 W/m2
04:54 65.1 °F 63.6 °F 30.14 in Calm   2.4 mph 95% 0.00 in 0 W/m2
04:59 65 °F 63.6 °F 30.15 in Calm   2.4 mph 95% 0.00 in 0 W/m2
05:04 65 °F 63.5 °F 30.15 in Calm   1.2 mph 95% 0.00 in 0 W/m2
05:09 65 °F 63.5 °F 30.15 in Calm     95% 0.00 in 0 W/m2
05:14 65 °F 63.5 °F 30.14 in Calm     95% 0.00 in 0 W/m2
05:19 65.2 °F 63.7 °F 30.15 in Calm     95% 0.00 in 0 W/m2
05:24 65.2 °F 63.7 °F 30.15 in ESE 0.8 mph 2.4 mph 95% 0.00 in 0 W/m2
05:29 65.1 °F 63.7 °F 30.15 in ESE 1.2 mph 2.4 mph 95% 0.00 in 0 W/m2
05:34 65.2 °F 63.7 °F 30.15 in ESE 0.9 mph 2.4 mph 95% 0.00 in 0 W/m2
05:39 65.1 °F 63.6 °F 30.15 in ESE 1 mph 2.4 mph 95% 0.00 in 7 W/m2
05:44 65.2 °F 64 °F 30.15 in ESE 1 mph 2.4 mph 95.9% 0.00 in 9 W/m2
05:49 65.3 °F 64 °F 30.15 in ESE 1.2 mph 2.4 mph 95.4% 0.00 in 11 W/m2
05:54 65.4 °F 64.1 °F 30.15 in ESE 1.4 mph 3.6 mph 95.4% 0.00 in 14 W/m2
05:59 65.6 °F 64.3 °F 30.15 in ESE 1.1 mph 3.6 mph 95.4% 0.00 in 16 W/m2
06:04 65.7 °F 64.6 °F 30.15 in ESE 1.5 mph 3.6 mph 96% 0.00 in 19 W/m2
06:09 66.1 °F 65 °F 30.15 in ESE 1.6 mph 3.6 mph 96% 0.00 in 21 W/m2
06:14 66.3 °F 65.1 °F 30.15 in ESE 0.3 mph 3.6 mph 96% 0.00 in 25 W/m2
06:19 66.4 °F 65.2 °F 30.15 in ESE 1 mph 3.6 mph 96% 0.00 in 26 W/m2
06:24 66.6 °F 65.4 °F 30.15 in ESE 1.7 mph 3.6 mph 96% 0.00 in 28 W/m2
06:29 66.8 °F 65.6 °F 30.15 in ESE 0.9 mph 3.6 mph 96% 0.00 in 30 W/m2
06:34 67 °F 65.8 °F 30.16 in ESE 1.9 mph 3.6 mph 96% 0.00 in 32 W/m2
06:39 67.1 °F 65.9 °F 30.16 in ESE 2 mph 4.8 mph 96% 0.00 in 33 W/m2
06:44 67.3 °F 66.1 °F 30.16 in ESE 1.2 mph 4.8 mph 96% 0.00 in 44 W/m2
06:49 67.5 °F 66.3 °F 30.16 in ESE 2 mph 4.8 mph 95.8% 0.00 in 69 W/m2
06:54 67.6 °F 66.2 °F 30.16 in ESE 2.6 mph 6 mph 95.3% 0.00 in 69 W/m2
06:59 67.7 °F 66.6 °F 30.16 in ESE 2.9 mph 6 mph 96% 0.00 in 81 W/m2
07:04 67.9 °F 66.5 °F 30.16 in ESE 3.7 mph 6 mph 95.3% 0.00 in 51 W/m2
07:09 68.2 °F 66.9 °F 30.16 in ESE 3.2 mph 6 mph 95.4% 0.00 in 51 W/m2
07:14 68.6 °F 67.2 °F 30.16 in ESE 1.7 mph 6 mph 95.5% 0.00 in 51 W/m2
07:19 68.9 °F 67.6 °F 30.16 in ESE 2.5 mph 6 mph 95.5% 0.00 in 53 W/m2
07:24 69.4 °F 67.9 °F 30.16 in ESE 3.6 mph 6 mph 95% 0.00 in 113 W/m2
07:29 69.8 °F 68.3 °F 30.16 in ESE 2.7 mph 6 mph 95% 0.00 in 153 W/m2
07:34 70.3 °F 68.9 °F 30.17 in ESE 2.4 mph 6 mph 95% 0.00 in 185 W/m2
Peotone Weather
Compliments of Weather Underground - 2 mb